Time;durP1;ratioP1;P1;durP2;ratioP2;P2;SDS_P1;SDS_P2;PMS_P1;PMS_P2;Temp;Humidity;BMP_temperature;BMP_pressure;BME280_temperature;BME280_humidity;BME280_pressure;Samples;Min_cycle;Max_cycle;Signal;HPM_P1;HPM_P2
2023/06/26 00:02:07;;;;;;;10.70;7.70;;;;;;;14.08;73.54;100292.69;137102;1275;22430;-72
2023/06/26 00:05:08;;;;;;;8.00;6.80;;;;;;;14.06;73.68;100287.73;137136;1275;22371;-72
2023/06/26 00:08:09;;;;;;;12.70;7.00;;;;;;;14.04;73.69;100285.48;137134;1275;22460;-72
2023/06/26 00:11:09;;;;;;;;;;;;;;;14.02;73.66;100283.43;137157;1275;22506;-72
2023/06/26 00:14:11;;;;;;;7.70;6.10;;;;;;;13.99;73.85;100281.51;137123;1275;22903;-72
2023/06/26 00:17:12;;;;;;;11.60;6.70;;;;;;;13.94;74.03;100282.44;137193;1275;22704;-73
2023/06/26 00:20:16;;;;;;;;;;;;;;;13.89;74.03;100285.52;137009;1275;22403;-72
2023/06/26 00:23:17;;;;;;;13.00;7.50;;;;;;;13.82;74.35;100285.23;137159;1275;22412;-72
2023/06/26 00:26:39;;;;;;;10.20;7.20;;;;;;;13.79;74.75;100283.51;137020;1274;22455;-72
2023/06/26 00:29:43;;;;;;;11.70;7.00;;;;;;;13.76;74.95;100282.11;137180;1275;22405;-72
2023/06/26 00:32:43;;;;;;;9.50;6.80;;;;;;;13.74;74.86;100281.80;137199;1275;22429;-72
2023/06/26 00:35:44;;;;;;;;;;;;;;;13.73;74.63;100275.70;137047;1275;22413;-72
2023/06/26 00:38:47;;;;;;;8.50;6.50;;;;;;;13.68;74.76;100272.19;137168;1275;23108;-72
2023/06/26 00:41:48;;;;;;;;;;;;;;;13.62;74.98;100273.61;137170;1275;22392;-72
2023/06/26 00:44:49;;;;;;;9.50;7.10;;;;;;;13.56;74.87;100269.67;137201;1265;22437;-72
2023/06/26 00:47:50;;;;;;;11.10;6.80;;;;;;;13.55;75.21;100269.98;137011;1275;22390;-72
2023/06/26 00:50:51;;;;;;;14.00;7.70;;;;;;;13.56;75.23;100265.28;137222;1273;22374;-73
2023/06/26 00:53:51;;;;;;;;;;;;;;;13.57;75.10;100262.98;137104;1275;22400;-75
2023/06/26 00:56:52;;;;;;;;;;;;;;;13.58;75.28;100264.54;137186;1275;23177;-71
2023/06/26 00:59:54;;;;;;;11.40;7.10;;;;;;;13.57;75.42;100262.80;137170;1275;22247;-72
2023/06/26 01:03:05;;;;;;;13.00;8.60;;;;;;;13.56;75.37;100260.15;137026;1275;23266;-72
2023/06/26 01:06:07;;;;;;;8.70;7.50;;;;;;;13.49;75.77;100260.25;137184;1275;22411;-72
2023/06/26 01:09:08;;;;;;;9.40;6.90;;;;;;;13.45;75.85;100258.27;137183;1275;22451;-72
2023/06/26 01:12:12;;;;;;;10.90;7.80;;;;;;;13.40;75.69;100258.48;137186;1275;22354;-72
2023/06/26 01:15:13;;;;;;;10.60;7.20;;;;;;;13.35;75.69;100257.65;137023;1275;22439;-73
2023/06/26 01:18:15;;;;;;;10.70;6.60;;;;;;;13.30;75.69;100261.40;137214;1275;22362;-72
2023/06/26 01:21:17;;;;;;;9.30;6.50;;;;;;;13.29;76.04;100259.95;137093;1275;22375;-72
2023/06/26 01:24:20;;;;;;;7.60;6.60;;;;;;;13.27;75.99;100265.86;137206;1275;22902;-75
2023/06/26 01:27:43;;;;;;;8.00;6.50;;;;;;;13.24;76.27;100262.09;137160;1275;22404;-74
2023/06/26 01:30:54;;;;;;;11.60;7.90;;;;;;;13.21;76.55;100258.77;137147;1275;23111;-75
2023/06/26 01:33:59;;;;;;;11.50;6.50;;;;;;;13.16;76.48;100258.58;137199;1275;22372;-74
2023/06/26 01:37:14;;;;;;;10.80;6.90;;;;;;;13.11;76.48;100257.95;137014;1275;22455;-75
2023/06/26 01:40:15;;;;;;;9.10;6.80;;;;;;;13.12;76.40;100255.91;137200;1275;23332;-75
2023/06/26 01:43:36;;;;;;;10.00;6.30;;;;;;;13.10;76.29;100251.73;137166;1275;23135;-75
2023/06/26 01:46:44;;;;;;;9.60;6.70;;;;;;;13.08;76.23;100248.38;137040;1275;22535;-74
2023/06/26 01:50:04;;;;;;;11.00;6.90;;;;;;;13.06;76.24;100245.20;137190;1275;22390;-74
2023/06/26 01:53:12;;;;;;;14.70;7.20;;;;;;;13.03;76.20;100238.10;137032;1275;22461;-75
2023/06/26 01:56:18;;;;;;;7.40;6.40;;;;;;;12.96;76.42;100237.22;137150;1275;22435;-75
2023/06/26 01:59:40;;;;;;;7.90;6.60;;;;;;;12.92;76.52;100238.66;137091;1275;22471;-74
2023/06/26 02:02:49;;;;;;;10.90;7.00;;;;;;;12.92;76.38;100238.87;137176;1275;22384;-74
2023/06/26 02:06:10;;;;;;;14.20;9.00;;;;;;;12.87;76.78;100239.84;137133;1275;22882;-75
2023/06/26 02:09:23;;;;;;;12.90;8.40;;;;;;;12.82;77.45;100238.58;137147;1275;22375;-75
2023/06/26 02:12:24;;;;;;;9.80;7.30;;;;;;;12.77;77.96;100235.21;137159;1275;22401;-77
2023/06/26 02:15:25;;;;;;;11.50;6.80;;;;;;;12.72;77.90;100232.49;136982;1275;22214;-74
2023/06/26 02:18:28;;;;;;;8.80;6.80;;;;;;;12.71;77.72;100232.00;137239;1275;23091;-78
2023/06/26 02:21:29;;;;;;;11.00;7.90;;;;;;;12.71;77.79;100230.43;136986;1275;22356;-76
2023/06/26 02:24:33;;;;;;;9.20;7.30;;;;;;;12.68;78.04;100231.15;137096;1275;23100;-74
2023/06/26 02:27:37;;;;;;;8.90;6.70;;;;;;;12.65;78.30;100233.84;137167;1275;22985;-76
2023/06/26 02:30:41;;;;;;;13.20;6.60;;;;;;;12.64;78.22;100234.61;137063;1272;22347;-74
2023/06/26 02:33:45;;;;;;;11.30;7.50;;;;;;;12.64;78.04;100233.88;137030;1275;22291;-74
2023/06/26 02:36:54;;;;;;;12.80;7.00;;;;;;;12.59;77.84;100236.48;137198;1275;22559;-74
2023/06/26 02:39:58;;;;;;;10.20;6.90;;;;;;;12.55;78.06;100234.17;137012;1275;22440;-75
2023/06/26 02:43:00;;;;;;;7.10;6.10;;;;;;;12.58;78.23;100235.13;137069;1275;22446;-74
2023/06/26 02:46:04;;;;;;;9.70;6.60;;;;;;;12.59;78.28;100234.75;137029;1275;22467;-74
2023/06/26 02:49:05;;;;;;;7.00;6.30;;;;;;;12.59;78.33;100233.98;137014;1275;22442;-74
2023/06/26 02:52:10;;;;;;;9.50;6.80;;;;;;;12.58;78.44;100235.35;137209;1275;22256;-74
2023/06/26 02:55:14;;;;;;;9.70;7.30;;;;;;;12.59;78.36;100237.91;137026;1275;23365;-74
2023/06/26 02:58:15;;;;;;;13.00;6.20;;;;;;;12.59;78.53;100239.69;137141;1275;22488;-75
2023/06/26 03:01:21;;;;;;;8.90;6.70;;;;;;;12.61;78.54;100238.77;137000;1275;22389;-74
2023/06/26 03:04:32;;;;;;;8.70;6.60;;;;;;;12.64;78.73;100238.05;137119;1269;22417;-75
2023/06/26 03:07:34;;;;;;;10.70;6.30;;;;;;;12.68;78.69;100235.92;137042;1275;23723;-75
2023/06/26 03:10:35;;;;;;;9.50;7.90;;;;;;;12.72;78.68;100234.98;137190;1275;22375;-74
2023/06/26 03:14:00;;;;;;;12.00;7.60;;;;;;;12.78;79.03;100237.64;136864;1275;23127;-75
2023/06/26 03:17:07;;;;;;;9.90;8.30;;;;;;;12.86;79.26;100237.58;137121;1275;22424;-74
2023/06/26 03:20:08;;;;;;;12.90;9.00;;;;;;;12.96;79.46;100235.09;137047;1275;23163;-75
2023/06/26 03:23:34;;;;;;;;;;;;;;;;;;;;;
2023/06/26 03:27:02;;;;;;;11.80;7.90;;;;;;;13.32;79.77;100235.80;137040;1275;22506;-74
2023/06/26 03:30:05;;;;;;;9.90;5.90;;;;;;;13.60;79.38;100236.17;136933;1275;22458;-74
2023/06/26 03:33:07;;;;;;;10.10;6.30;;;;;;;13.83;78.92;100235.17;136958;1275;22568;-74
2023/06/26 03:36:41;;;;;;;11.30;6.90;;;;;;;14.07;78.73;100226.45;137115;1275;22695;-75
2023/06/26 03:39:53;;;;;;;6.40;5.70;;;;;;;14.41;78.81;100226.11;137153;1275;22356;-74
2023/06/26 03:42:55;;;;;;;8.10;6.00;;;;;;;14.78;78.69;100226.02;137051;1275;22435;-78
2023/06/26 03:46:03;;;;;;;7.30;6.20;;;;;;;15.18;78.21;100226.30;137203;1268;22409;-78
2023/06/26 03:49:07;;;;;;;11.80;7.10;;;;;;;15.50;77.68;100224.23;137214;1274;22343;-78
2023/06/26 03:52:21;;;;;;;12.80;7.90;;;;;;;15.79;77.29;100219.31;137091;1275;22377;-78
2023/06/26 03:55:25;;;;;;;15.00;7.50;;;;;;;16.16;77.03;100213.48;137228;1275;22381;-79
2023/06/26 03:58:28;;;;;;;9.30;8.00;;;;;;;16.52;76.70;100210.86;136980;1275;22442;-78
2023/06/26 04:01:49;;;;;;;13.50;7.90;;;;;;;16.97;76.52;100217.03;137214;1275;22363;-78
2023/06/26 04:05:03;;;;;;;;;;;;;;;;;;;;;
2023/06/26 04:08:31;;;;;;;10.90;7.50;;;;;;;17.88;75.56;100211.83;137027;1275;22429;-78
2023/06/26 04:11:34;;;;;;;11.40;7.10;;;;;;;18.50;75.10;100212.65;137202;1275;23147;-81
2023/06/26 04:15:08;;;;;;;10.90;7.80;;;;;;;19.10;74.40;100215.03;137112;1275;22477;-78
2023/06/26 04:18:15;;;;;;;11.50;7.80;;;;;;;19.48;73.10;100213.08;137138;1275;22237;-78
2023/06/26 04:21:42;;;;;;;14.40;9.00;;;;;;;19.71;72.66;100208.74;137148;1275;22228;-80
2023/06/26 04:24:47;;;;;;;12.20;8.80;;;;;;;20.10;72.23;100203.80;137152;1275;22998;-80
2023/06/26 04:28:48;;;;;;;;;;;;;;;;;;;;;
2023/06/26 04:32:15;;;;;;;11.70;8.60;;;;;;;20.99;71.09;100201.44;136968;1275;22395;-79
2023/06/26 04:35:44;;;;;;;11.60;9.60;;;;;;;21.58;70.62;100199.89;137163;1275;23172;-79
2023/06/26 04:38:55;;;;;;;15.60;10.20;;;;;;;22.12;69.81;100199.11;137158;1275;22538;-79
2023/06/26 04:42:21;;;;;;;15.50;9.30;;;;;;;22.64;68.87;100205.31;137145;1275;22388;-79
2023/06/26 04:45:31;;;;;;;11.60;9.80;;;;;;;23.09;67.86;100205.05;137118;1275;22444;-78
2023/06/26 04:48:39;;;;;;;14.20;9.90;;;;;;;23.42;67.03;100209.39;137150;1275;22479;-77
2023/06/26 04:51:45;;;;;;;14.50;10.50;;;;;;;23.73;66.37;100213.83;137145;1275;22341;-77
2023/06/26 04:55:31;;;;;;;15.00;10.40;;;;;;;23.99;65.35;100213.98;137130;1275;23102;-77
2023/06/26 04:58:37;;;;;;;13.70;10.00;;;;;;;24.14;64.35;100213.14;137144;1275;22390;-77
2023/06/26 05:01:40;;;;;;;15.60;9.80;;;;;;;24.20;63.82;100209.73;137174;1275;22356;-78
2023/06/26 05:04:42;;;;;;;14.50;10.50;;;;;;;24.40;63.43;100205.67;137120;1275;22351;-76
2023/06/26 05:07:43;;;;;;;13.60;9.40;;;;;;;24.46;62.84;100201.69;137219;1275;22441;-77
2023/06/26 05:10:47;;;;;;;11.60;9.20;;;;;;;24.62;62.41;100200.63;137091;1275;22536;-77
2023/06/26 05:14:03;;;;;;;11.30;10.00;;;;;;;24.74;61.90;100199.48;137079;1275;23157;-77
2023/06/26 05:17:24;;;;;;;12.50;9.80;;;;;;;24.92;61.36;100201.48;137142;1275;23083;-77
2023/06/26 05:20:54;;;;;;;13.50;9.70;;;;;;;25.26;61.16;100199.30;137185;1275;22493;-78
2023/06/26 05:23:56;;;;;;;;;;;;;;;25.69;60.03;100197.58;137182;1275;22426;-77
2023/06/26 05:27:00;;;;;;;15.80;10.40;;;;;;;25.90;59.70;100195.02;137153;1275;22235;-78
2023/06/26 05:30:25;;;;;;;14.70;9.70;;;;;;;26.17;58.95;100193.65;137156;1272;23311;-78
2023/06/26 05:33:30;;;;;;;19.70;10.80;;;;;;;26.49;58.39;100192.68;137167;1275;22474;-77
2023/06/26 05:36:51;;;;;;;15.80;10.50;;;;;;;26.77;57.77;100189.29;137145;1275;22436;-79
2023/06/26 05:40:23;;;;;;;;;;;;;;;;;;;;;
2023/06/26 05:43:54;;;;;;;19.00;10.60;;;;;;;27.22;56.40;100189.38;137145;1275;22433;-77
2023/06/26 05:46:58;;;;;;;14.90;10.50;;;;;;;27.32;55.75;100184.73;137073;1275;22453;-78
2023/06/26 05:50:02;;;;;;;14.50;10.10;;;;;;;27.51;55.60;100184.55;137195;1272;22535;-78
2023/06/26 05:53:06;;;;;;;14.50;10.20;;;;;;;27.76;54.78;100180.55;137154;1275;23139;-78
2023/06/26 05:56:08;;;;;;;15.10;10.20;;;;;;;28.03;54.66;100182.29;137139;1275;22339;-77
2023/06/26 05:59:21;;;;;;;21.10;10.50;;;;;;;28.33;54.11;100185.05;137147;1275;22355;-77
2023/06/26 06:02:46;;;;;;;14.30;9.60;;;;;;;28.49;53.41;100183.05;137176;1275;22412;-77
2023/06/26 06:05:52;;;;;;;17.00;10.10;;;;;;;28.60;53.05;100176.98;137205;1275;22637;-77
2023/06/26 06:09:15;;;;;;;14.70;9.50;;;;;;;28.76;52.76;100174.39;137147;1275;22431;-79
2023/06/26 06:13:00;;;;;;;15.10;9.50;;;;;;;28.98;51.96;100173.65;137170;1275;23111;-78
2023/06/26 06:16:03;;;;;;;10.80;9.30;;;;;;;29.28;51.60;100175.54;137156;1271;22435;-78
2023/06/26 06:19:20;;;;;;;10.60;8.70;;;;;;;29.42;50.69;100172.38;137181;1275;23067;-78
2023/06/26 06:26:12;;;;;;;11.10;8.70;;;;;;;29.43;49.88;100169.09;137116;1275;22379;-79
2023/06/26 06:29:19;;;;;;;12.20;8.10;;;;;;;29.70;49.83;100168.06;137200;1275;22388;-79
2023/06/26 06:32:28;;;;;;;12.60;8.40;;;;;;;29.96;49.37;100168.83;137198;1275;23142;-79
2023/06/26 06:35:44;;;;;;;13.60;8.50;;;;;;;30.25;49.11;100166.30;137154;1275;22340;-79
2023/06/26 06:38:51;;;;;;;11.20;8.10;;;;;;;30.48;48.43;100171.38;137152;1275;22396;-81
2023/06/26 06:42:14;;;;;;;11.80;7.80;;;;;;;30.61;47.93;100172.14;137135;1275;22385;-77
2023/06/26 06:45:24;;;;;;;8.90;7.60;;;;;;;30.82;47.60;100171.09;137094;1275;22219;-79
2023/06/26 06:49:07;;;;;;;;;;;;;;;;;;;;;
2023/06/26 06:52:32;;;;;;;11.30;7.60;;;;;;;31.32;46.38;100168.59;137078;1275;23694;-79
2023/06/26 06:55:36;;;;;;;8.60;6.90;;;;;;;31.41;46.28;100171.52;137122;1275;22459;-79
2023/06/26 06:58:59;;;;;;;10.20;7.00;;;;;;;31.48;45.94;100170.29;137116;1275;22913;-79
2023/06/26 07:02:10;;;;;;;8.10;6.40;;;;;;;31.50;45.75;100173.54;137180;1275;22989;-79
2023/06/26 07:05:21;;;;;;;8.10;6.60;;;;;;;31.49;45.21;100172.89;137176;1271;22378;-79
2023/06/26 07:08:25;;;;;;;10.90;6.90;;;;;;;31.32;45.16;100166.70;137168;1275;22358;-79
2023/06/26 07:12:29;;;;;;;11.80;7.50;;;;;;;31.26;45.19;100168.55;137144;1275;22375;-79
2023/06/26 07:15:48;;;;;;;9.20;7.10;;;;;;;31.23;45.00;100165.15;137141;1275;22396;-79
2023/06/26 07:19:13;;;;;;;;;;;;;;;;;;;;;
2023/06/26 07:22:26;;;;;;;;;;;;;;;;;;;;;
2023/06/26 07:25:30;;;;;;;9.90;6.50;;;;;;;31.02;44.28;100162.48;137106;1275;22809;-79
2023/06/26 07:28:34;;;;;;;11.90;7.90;;;;;;;30.88;44.21;100162.07;137149;1275;23108;-78
2023/06/26 07:32:06;;;;;;;9.70;6.90;;;;;;;30.92;44.75;100158.27;137123;1275;23187;-78
2023/06/26 07:35:13;;;;;;;12.90;7.90;;;;;;;31.07;44.51;100157.96;137053;1275;22385;-79
2023/06/26 07:38:55;;;;;;;6.70;5.90;;;;;;;31.09;44.24;100157.35;137161;1275;22382;-79
2023/06/26 07:42:17;;;;;;;;;;;;;;;;;;;;;
2023/06/26 07:45:58;;;;;;;;;;;;;;;;;;;;;
2023/06/26 07:49:01;;;;;;;10.00;6.20;;;;;;;31.56;43.97;100149.00;137144;1275;23362;-78
2023/06/26 07:52:33;;;;;;;7.20;5.40;;;;;;;31.90;43.23;100152.52;137156;1275;22368;-78
2023/06/26 07:55:33;;;;;;;8.20;5.20;;;;;;;32.12;42.70;100152.95;137173;1275;22487;-79
2023/06/26 07:58:37;;;;;;;7.80;6.00;;;;;;;31.97;42.35;100153.69;137194;1275;22435;-79
2023/06/26 08:01:48;;;;;;;8.50;5.80;;;;;;;31.89;42.27;100152.76;137149;1275;22421;-79
2023/06/26 08:04:52;;;;;;;6.30;5.10;;;;;;;32.00;42.26;100153.52;137132;1275;22528;-78
2023/06/26 08:08:06;;;;;;;6.80;5.40;;;;;;;32.12;41.54;100153.17;137149;1275;22425;-78
2023/06/26 08:11:10;;;;;;;6.00;4.90;;;;;;;32.09;40.86;100154.67;137164;1275;22439;-78
2023/06/26 08:14:19;;;;;;;5.80;4.70;;;;;;;32.12;40.83;100152.73;137132;1275;22295;-79
2023/06/26 08:17:23;;;;;;;8.30;4.60;;;;;;;32.16;40.79;100154.34;137108;1275;22506;-79
2023/06/26 08:20:24;;;;;;;4.60;4.20;;;;;;;32.27;40.32;100150.58;137142;1268;22448;-79
2023/06/26 08:23:25;;;;;;;5.50;4.80;;;;;;;32.24;39.88;100151.77;137137;1275;22599;-79
2023/06/26 08:26:29;;;;;;;4.70;4.20;;;;;;;32.30;39.89;100149.27;137158;1275;23121;-78
2023/06/26 08:29:42;;;;;;;4.90;4.30;;;;;;;32.43;39.50;100151.03;137121;1275;23260;-79
2023/06/26 08:32:43;;;;;;;4.60;4.10;;;;;;;32.42;38.64;100152.41;137158;1275;22552;-79
2023/06/26 08:35:44;;;;;;;16.10;5.70;;;;;;;32.33;38.51;100148.41;137191;1275;22429;-78
2023/06/26 08:38:48;;;;;;;5.30;4.60;;;;;;;32.14;38.64;100146.17;137131;1269;22353;-79
2023/06/26 08:41:52;;;;;;;20.10;6.00;;;;;;;32.04;38.76;100146.30;137168;1275;22441;-78
2023/06/26 08:45:13;;;;;;;7.10;4.90;;;;;;;32.05;39.05;100140.83;137178;1275;22446;-79
2023/06/26 08:48:15;;;;;;;5.30;4.80;;;;;;;32.17;38.94;100136.81;137171;1275;22436;-79
2023/06/26 08:51:36;;;;;;;5.80;4.90;;;;;;;32.35;38.38;100139.64;137149;1275;22613;-79
2023/06/26 08:54:43;;;;;;;8.50;4.60;;;;;;;32.49;37.50;100140.48;137160;1275;22405;-79
2023/06/26 08:58:05;;;;;;;;;;;;;;;;;;;;;
2023/06/26 09:01:07;;;;;;;5.00;4.30;;;;;;;32.88;36.49;100125.22;137188;1275;22359;-79
2023/06/26 09:04:10;;;;;;;8.50;4.20;;;;;;;32.95;35.82;100117.89;137129;1275;22347;-79
2023/06/26 09:07:15;;;;;;;10.00;4.40;;;;;;;32.93;35.07;100120.10;137190;1275;22259;-79
2023/06/26 09:10:38;;;;;;;8.50;4.40;;;;;;;32.68;35.36;100117.67;137152;1275;23428;-79
2023/06/26 09:13:43;;;;;;;5.10;4.30;;;;;;;32.46;35.85;100119.82;137103;1275;22354;-79
2023/06/26 09:16:47;;;;;;;5.00;4.50;;;;;;;32.40;35.78;100119.58;137129;1275;22298;-79
2023/06/26 09:19:51;;;;;;;8.10;4.60;;;;;;;32.22;36.01;100117.31;137177;1275;22414;-79
2023/06/26 09:22:52;;;;;;;6.00;4.30;;;;;;;32.11;36.03;100119.55;137096;1275;22496;-79
2023/06/26 09:25:53;;;;;;;5.00;4.40;;;;;;;31.91;35.63;100120.23;137136;1275;22445;-77
2023/06/26 09:28:56;;;;;;;4.20;3.70;;;;;;;31.66;35.60;100120.23;137159;1275;22452;-79
2023/06/26 09:31:57;;;;;;;5.30;4.10;;;;;;;31.62;35.55;100117.84;137153;1275;23091;-78
2023/06/26 09:35:01;;;;;;;6.50;4.50;;;;;;;31.74;35.64;100111.71;137167;1275;22350;-79
2023/06/26 09:38:36;;;;;;;5.70;4.60;;;;;;;31.81;35.67;100109.54;137138;1275;22390;-78
2023/06/26 09:41:41;;;;;;;4.70;3.70;;;;;;;31.85;35.50;100108.95;137157;1275;22413;-78
2023/06/26 09:44:46;;;;;;;5.70;4.40;;;;;;;31.78;35.51;100110.08;137145;1275;22424;-79
2023/06/26 09:47:47;;;;;;;4.90;4.30;;;;;;;31.84;35.34;100103.15;137008;1275;22415;-79
2023/06/26 09:50:56;;;;;;;7.10;4.10;;;;;;;31.79;35.71;100105.02;137125;1275;22418;-79
2023/06/26 09:54:04;;;;;;;4.50;4.10;;;;;;;32.03;35.81;100101.69;137093;1275;22464;-79
2023/06/26 09:57:18;;;;;;;4.70;4.20;;;;;;;32.30;35.32;100093.84;137102;1275;23253;-79
2023/06/26 10:00:22;;;;;;;4.40;3.80;;;;;;;32.47;34.70;100090.97;137062;1275;22451;-79
2023/06/26 10:03:23;;;;;;;5.00;4.00;;;;;;;32.51;34.51;100086.05;137119;1275;22359;-78
2023/06/26 10:06:49;;;;;;;9.70;4.10;;;;;;;32.54;34.39;100085.48;137134;1275;22207;-79
2023/06/26 10:09:56;;;;;;;5.70;3.80;;;;;;;32.47;34.05;100084.77;137087;1275;22452;-79
2023/06/26 10:13:08;;;;;;;4.20;3.80;;;;;;;32.41;34.17;100084.09;137126;1275;22365;-78
2023/06/26 10:16:11;;;;;;;8.90;3.70;;;;;;;32.39;34.07;100080.39;137150;1275;22412;-78
2023/06/26 10:19:23;;;;;;;6.50;4.00;;;;;;;32.17;34.08;100076.77;137120;1275;22348;-79
2023/06/26 10:22:29;;;;;;;4.30;3.80;;;;;;;31.71;34.21;100075.68;137143;1275;22426;-78
2023/06/26 10:25:31;;;;;;;4.80;3.80;;;;;;;31.73;34.12;100073.02;137122;1275;22332;-79
2023/06/26 10:28:34;;;;;;;5.00;3.80;;;;;;;31.72;33.89;100076.11;137145;1275;22304;-79
2023/06/26 10:31:45;;;;;;;5.60;3.90;;;;;;;31.61;34.05;100070.30;137071;1275;22378;-78
2023/06/26 10:35:07;;;;;;;5.30;4.80;;;;;;;31.39;34.36;100061.94;137085;1275;23258;-78
2023/06/26 10:38:11;;;;;;;4.90;3.90;;;;;;;31.21;34.86;100066.38;137186;1275;22882;-78
2023/06/26 10:41:23;;;;;;;4.30;3.90;;;;;;;31.13;34.46;100068.84;137054;1275;23025;-78
2023/06/26 10:44:27;;;;;;;4.60;4.00;;;;;;;31.19;34.23;100065.54;137162;1275;23103;-78
2023/06/26 10:47:32;;;;;;;6.60;3.80;;;;;;;31.27;34.08;100061.48;137153;1275;22450;-78
2023/06/26 10:50:39;;;;;;;4.40;3.50;;;;;;;31.40;34.09;100058.00;137182;1275;22565;-78
2023/06/26 10:53:40;;;;;;;4.90;3.90;;;;;;;31.59;34.10;100053.58;137172;1275;23180;-79
2023/06/26 10:56:59;;;;;;;6.30;4.00;;;;;;;31.60;34.29;100055.84;137163;1275;22423;-78
2023/06/26 11:00:11;;;;;;;5.20;4.10;;;;;;;31.52;34.55;100053.08;137012;1275;22469;-79
2023/06/26 11:03:24;;;;;;;11.00;3.50;;;;;;;31.52;34.15;100057.13;137082;1275;22354;-79
2023/06/26 11:06:48;;;;;;;4.30;3.90;;;;;;;31.50;33.93;100052.52;137163;1275;22578;-79
2023/06/26 11:10:00;;;;;;;4.70;4.00;;;;;;;31.45;33.43;100051.86;137160;1275;22361;-79
2023/06/26 11:13:22;;;;;;;;;;;;;;;;;;;;;
2023/06/26 11:16:25;;;;;;;4.20;3.70;;;;;;;31.35;33.22;100049.98;137138;1275;22467;-78
2023/06/26 11:19:43;;;;;;;5.00;4.10;;;;;;;31.08;32.96;100045.04;137092;1275;22428;-78
2023/06/26 11:22:44;;;;;;;7.00;3.60;;;;;;;30.96;33.70;100046.15;136848;1273;392436;-78
2023/06/26 11:25:48;;;;;;;4.80;3.80;;;;;;;31.14;34.35;100042.20;137185;1268;23223;-78
2023/06/26 11:28:57;;;;;;;4.30;3.90;;;;;;;31.12;34.35;100037.14;137159;1275;22351;-78
2023/06/26 11:32:06;;;;;;;4.20;3.80;;;;;;;31.06;34.57;100030.80;137155;1275;22360;-78
2023/06/26 11:35:33;;;;;;;;;;;;;;;;;;;;;
2023/06/26 11:38:38;;;;;;;4.90;4.10;;;;;;;31.03;34.20;100026.02;137182;1275;22471;-79
2023/06/26 11:42:11;;;;;;;4.20;3.80;;;;;;;30.98;34.17;100022.29;137090;1275;22421;-79
2023/06/26 11:45:12;;;;;;;4.30;3.60;;;;;;;31.09;34.74;100024.96;137184;1275;22372;-79
2023/06/26 11:48:21;;;;;;;5.70;4.20;;;;;;;31.25;34.54;100023.32;137146;1273;22487;-79
2023/06/26 11:51:23;;;;;;;5.80;4.10;;;;;;;31.09;33.84;100018.61;137124;1275;23091;-79
2023/06/26 11:54:28;;;;;;;5.90;4.00;;;;;;;30.93;34.01;100007.92;137115;1275;22409;-79
2023/06/26 11:57:40;;;;;;;7.10;4.00;;;;;;;31.03;34.06;100009.14;137085;1275;22247;-79
2023/06/26 12:00:43;;;;;;;3.80;3.50;;;;;;;31.01;34.09;100003.54;137121;1275;22381;-79
2023/06/26 12:03:44;;;;;;;3.80;3.50;;;;;;;31.00;34.55;100004.34;137185;1275;23126;-79
2023/06/26 12:06:48;;;;;;;4.20;3.80;;;;;;;31.00;34.30;100004.01;137137;1275;22441;-78
2023/06/26 12:09:53;;;;;;;5.50;3.80;;;;;;;31.00;34.04;100004.23;137132;1275;22433;-79
2023/06/26 12:12:58;;;;;;;6.00;4.20;;;;;;;31.09;34.44;100002.02;137164;1275;22447;-78
2023/06/26 12:15:59;;;;;;;8.50;4.10;;;;;;;31.06;33.85;99994.52;137090;1275;22224;-79
2023/06/26 12:19:01;;;;;;;4.60;4.00;;;;;;;30.83;33.74;99989.53;137157;1275;22460;-79
2023/06/26 12:22:06;;;;;;;4.30;3.90;;;;;;;30.73;34.34;99982.89;137178;1275;22368;-79
2023/06/26 12:25:08;;;;;;;13.70;4.30;;;;;;;30.65;34.55;99978.23;137145;1275;22373;-79
2023/06/26 12:28:20;;;;;;;4.70;4.10;;;;;;;30.66;35.06;99979.79;137141;1275;22209;-79
2023/06/26 12:31:21;;;;;;;4.30;3.90;;;;;;;30.77;34.26;99979.73;137068;1275;22402;-78
2023/06/26 12:34:34;;;;;;;4.10;3.70;;;;;;;30.63;34.58;99976.96;136947;1275;22366;-78
2023/06/26 12:37:42;;;;;;;4.00;3.50;;;;;;;30.63;34.74;99976.52;137209;1275;22432;-78
2023/06/26 12:40:46;;;;;;;6.60;4.20;;;;;;;30.65;35.04;99975.77;137178;1275;22340;-77
2023/06/26 12:43:50;;;;;;;4.10;3.70;;;;;;;30.71;35.13;99970.40;137139;1275;22366;-78
2023/06/26 12:46:54;;;;;;;3.80;3.30;;;;;;;30.78;35.23;99969.42;137139;1275;23133;-78
2023/06/26 12:49:58;;;;;;;4.50;3.50;;;;;;;30.78;35.36;99968.98;137028;1275;22388;-79
2023/06/26 12:53:03;;;;;;;4.80;3.80;;;;;;;30.73;34.45;99957.24;137141;1275;23129;-79
2023/06/26 12:56:04;;;;;;;5.80;3.70;;;;;;;30.67;34.54;99955.63;137143;1275;22342;-78
2023/06/26 12:59:07;;;;;;;10.80;4.10;;;;;;;30.69;34.39;99954.22;137119;1275;23186;-78
2023/06/26 13:02:10;;;;;;;5.10;3.70;;;;;;;30.67;34.73;99951.03;137060;1275;22449;-81
2023/06/26 13:05:15;;;;;;;5.70;3.80;;;;;;;30.77;35.02;99943.80;137178;1275;23192;-79
2023/06/26 13:08:19;;;;;;;4.10;3.70;;;;;;;30.85;35.15;99943.73;137143;1268;22429;-79
2023/06/26 13:11:21;;;;;;;4.00;3.60;;;;;;;30.80;34.99;99942.77;137187;1275;22377;-79
2023/06/26 13:14:31;;;;;;;3.70;3.40;;;;;;;30.73;34.88;99938.95;137137;1275;23131;-79
2023/06/26 13:17:32;;;;;;;5.90;3.50;;;;;;;30.71;34.84;99937.42;137131;1275;23241;-79
2023/06/26 13:20:32;;;;;;;3.60;3.30;;;;;;;30.69;34.69;99935.66;137158;1275;22254;-79
2023/06/26 13:23:34;;;;;;;4.40;3.70;;;;;;;30.71;34.63;99929.48;136985;1275;22288;-79
2023/06/26 13:26:35;;;;;;;5.20;3.60;;;;;;;30.65;34.19;99929.23;137188;1275;23032;-79
2023/06/26 13:29:36;;;;;;;7.60;3.10;;;;;;;30.57;34.92;99923.13;137063;1271;22497;-78
2023/06/26 13:32:40;;;;;;;9.90;3.90;;;;;;;30.47;34.89;99920.17;137136;1275;22417;-78
2023/06/26 13:35:49;;;;;;;4.70;3.80;;;;;;;30.40;35.45;99916.42;137105;1275;22429;-79
2023/06/26 13:38:55;;;;;;;4.00;3.70;;;;;;;30.45;35.43;99917.15;137136;1268;22487;-77
2023/06/26 13:41:56;;;;;;;3.70;3.30;;;;;;;30.48;35.45;99914.08;137146;1272;22424;-78
2023/06/26 13:44:59;;;;;;;3.90;3.60;;;;;;;30.47;35.42;99906.27;137139;1275;23117;-78
2023/06/26 13:48:03;;;;;;;3.70;3.40;;;;;;;30.39;35.64;99896.61;137174;1275;23083;-79
2023/06/26 13:51:04;;;;;;;3.90;3.50;;;;;;;30.35;35.98;99893.69;137126;1275;22418;-79
2023/06/26 13:54:08;;;;;;;5.40;3.60;;;;;;;30.25;35.57;99892.20;137015;1267;23136;-79
2023/06/26 13:57:13;;;;;;;6.00;4.10;;;;;;;30.20;35.69;99891.71;137171;1275;22229;-78
2023/06/26 14:00:19;;;;;;;4.40;3.90;;;;;;;30.23;35.69;99886.36;137139;1275;22365;-79
2023/06/26 14:03:20;;;;;;;7.60;4.10;;;;;;;30.24;35.53;99878.59;137161;1275;22317;-78
2023/06/26 14:06:24;;;;;;;6.90;3.70;;;;;;;30.17;35.65;99880.43;137121;1275;22423;-79
2023/06/26 14:09:25;;;;;;;4.30;3.70;;;;;;;30.10;35.37;99873.08;137130;1275;23139;-78
2023/06/26 14:12:26;;;;;;;3.90;3.30;;;;;;;29.97;35.65;99870.46;137113;1272;22443;-77
2023/06/26 14:15:27;;;;;;;4.50;3.50;;;;;;;29.81;35.78;99867.44;137159;1275;22475;-79
2023/06/26 14:18:31;;;;;;;3.80;3.40;;;;;;;29.82;36.19;99865.38;137139;1275;22346;-79
2023/06/26 14:21:38;;;;;;;6.00;4.10;;;;;;;29.88;36.59;99862.27;137122;1275;23540;-79
2023/06/26 14:24:42;;;;;;;4.50;3.80;;;;;;;29.92;36.39;99858.58;137136;1275;22434;-79
2023/06/26 14:27:43;;;;;;;3.60;3.40;;;;;;;29.88;36.24;99849.90;137140;1275;23203;-79
2023/06/26 14:31:07;;;;;;;4.40;3.30;;;;;;;29.88;36.14;99843.00;137076;1275;22419;-79
2023/06/26 14:34:10;;;;;;;4.90;3.60;;;;;;;29.88;36.43;99836.89;137126;1275;22468;-79
2023/06/26 14:37:41;;;;;;;7.50;3.40;;;;;;;29.91;36.20;99831.63;137226;1275;22445;-79
2023/06/26 14:40:42;;;;;;;3.60;3.30;;;;;;;29.91;36.34;99825.66;137139;1275;23113;-79
2023/06/26 14:43:46;;;;;;;6.80;4.00;;;;;;;29.86;36.61;99820.13;137122;1275;22399;-79
2023/06/26 14:46:47;;;;;;;3.60;3.30;;;;;;;29.87;37.02;99813.38;137166;1275;22127;-80
2023/06/26 14:49:48;;;;;;;3.40;3.10;;;;;;;29.77;36.99;99811.66;137138;1275;23165;-80
2023/06/26 14:52:52;;;;;;;6.70;3.30;;;;;;;29.68;37.10;99807.16;137108;1275;22372;-79